sensor_id;sensor_type;location;lat;lon;timestamp;P1;durP1;ratioP1;P2;durP2;ratioP2
74935;SDS011;63501;55.570;37.488;2024-03-06T00:02:07;2.15;;;1.63;;
74935;SDS011;63501;55.570;37.488;2024-03-06T00:04:35;1.73;;;1.50;;
74935;SDS011;63501;55.570;37.488;2024-03-06T00:07:03;1.67;;;1.50;;
74935;SDS011;63501;55.570;37.488;2024-03-06T00:09:31;2.25;;;1.67;;
74935;SDS011;63501;55.570;37.488;2024-03-06T00:11:58;2.50;;;1.17;;
74935;SDS011;63501;55.570;37.488;2024-03-06T00:14:28;1.85;;;1.35;;
74935;SDS011;63501;55.570;37.488;2024-03-06T00:16:55;2.22;;;1.48;;
74935;SDS011;63501;55.570;37.488;2024-03-06T00:19:22;2.08;;;1.38;;
74935;SDS011;63501;55.570;37.488;2024-03-06T00:24:16;1.92;;;1.40;;
74935;SDS011;63501;55.570;37.488;2024-03-06T00:26:44;1.80;;;1.40;;
74935;SDS011;63501;55.570;37.488;2024-03-06T00:29:12;1.48;;;1.38;;
74935;SDS011;63501;55.570;37.488;2024-03-06T00:31:43;2.42;;;1.17;;
74935;SDS011;63501;55.570;37.488;2024-03-06T00:34:11;2.95;;;1.20;;
74935;SDS011;63501;55.570;37.488;2024-03-06T00:36:40;1.55;;;1.20;;
74935;SDS011;63501;55.570;37.488;2024-03-06T00:39:10;2.33;;;1.42;;
74935;SDS011;63501;55.570;37.488;2024-03-06T00:41:39;1.77;;;1.60;;
74935;SDS011;63501;55.570;37.488;2024-03-06T00:46:34;3.30;;;1.50;;
74935;SDS011;63501;55.570;37.488;2024-03-06T00:49:03;1.38;;;1.15;;
74935;SDS011;63501;55.570;37.488;2024-03-06T00:51:30;3.83;;;1.17;;
74935;SDS011;63501;55.570;37.488;2024-03-06T00:54:01;1.33;;;1.10;;
74935;SDS011;63501;55.570;37.488;2024-03-06T00:56:30;2.25;;;1.25;;
74935;SDS011;63501;55.570;37.488;2024-03-06T01:01:24;1.63;;;1.10;;
74935;SDS011;63501;55.570;37.488;2024-03-06T01:03:52;1.75;;;1.00;;
74935;SDS011;63501;55.570;37.488;2024-03-06T01:06:22;1.30;;;1.20;;
74935;SDS011;63501;55.570;37.488;2024-03-06T01:08:49;1.33;;;1.13;;
74935;SDS011;63501;55.570;37.488;2024-03-06T01:11:16;2.05;;;1.02;;
74935;SDS011;63501;55.570;37.488;2024-03-06T01:13:43;1.38;;;1.10;;
74935;SDS011;63501;55.570;37.488;2024-03-06T01:16:10;2.38;;;1.25;;
74935;SDS011;63501;55.570;37.488;2024-03-06T01:18:38;3.17;;;1.10;;
74935;SDS011;63501;55.570;37.488;2024-03-06T01:21:05;1.70;;;1.10;;
74935;SDS011;63501;55.570;37.488;2024-03-06T01:23:33;1.52;;;1.15;;
74935;SDS011;63501;55.570;37.488;2024-03-06T01:26:01;1.40;;;1.10;;
74935;SDS011;63501;55.570;37.488;2024-03-06T01:28:28;1.52;;;1.10;;
74935;SDS011;63501;55.570;37.488;2024-03-06T01:30:55;1.75;;;1.40;;
74935;SDS011;63501;55.570;37.488;2024-03-06T01:33:24;2.45;;;1.00;;
74935;SDS011;63501;55.570;37.488;2024-03-06T01:35:51;1.63;;;1.05;;
74935;SDS011;63501;55.570;37.488;2024-03-06T01:38:18;4.40;;;1.08;;
74935;SDS011;63501;55.570;37.488;2024-03-06T01:40:47;1.75;;;1.20;;
74935;SDS011;63501;55.570;37.488;2024-03-06T01:43:20;2.42;;;1.27;;
74935;SDS011;63501;55.570;37.488;2024-03-06T01:45:48;1.98;;;1.15;;
74935;SDS011;63501;55.570;37.488;2024-03-06T01:50:43;1.55;;;1.05;;
74935;SDS011;63501;55.570;37.488;2024-03-06T01:53:11;3.22;;;1.05;;
74935;SDS011;63501;55.570;37.488;2024-03-06T01:55:39;1.77;;;1.13;;
74935;SDS011;63501;55.570;37.488;2024-03-06T01:58:08;2.10;;;1.13;;
74935;SDS011;63501;55.570;37.488;2024-03-06T02:00:36;1.67;;;1.30;;
74935;SDS011;63501;55.570;37.488;2024-03-06T02:03:04;1.30;;;1.10;;
74935;SDS011;63501;55.570;37.488;2024-03-06T02:05:32;1.75;;;1.10;;
74935;SDS011;63501;55.570;37.488;2024-03-06T02:10:26;1.35;;;1.10;;
74935;SDS011;63501;55.570;37.488;2024-03-06T02:12:54;2.10;;;1.40;;
74935;SDS011;63501;55.570;37.488;2024-03-06T02:15:23;1.88;;;1.33;;
74935;SDS011;63501;55.570;37.488;2024-03-06T02:17:51;2.38;;;1.20;;
74935;SDS011;63501;55.570;37.488;2024-03-06T02:20:22;1.50;;;1.35;;
74935;SDS011;63501;55.570;37.488;2024-03-06T02:22:50;1.80;;;1.42;;
74935;SDS011;63501;55.570;37.488;2024-03-06T02:25:17;2.50;;;1.10;;
74935;SDS011;63501;55.570;37.488;2024-03-06T02:27:45;2.75;;;1.48;;
74935;SDS011;63501;55.570;37.488;2024-03-06T02:30:14;1.27;;;1.17;;
74935;SDS011;63501;55.570;37.488;2024-03-06T02:32:41;1.73;;;1.20;;
74935;SDS011;63501;55.570;37.488;2024-03-06T02:35:09;1.70;;;1.20;;
74935;SDS011;63501;55.570;37.488;2024-03-06T02:37:38;2.85;;;1.10;;
74935;SDS011;63501;55.570;37.488;2024-03-06T02:40:07;1.33;;;1.00;;
74935;SDS011;63501;55.570;37.488;2024-03-06T02:42:35;2.20;;;1.38;;
74935;SDS011;63501;55.570;37.488;2024-03-06T02:45:04;1.63;;;1.45;;
74935;SDS011;63501;55.570;37.488;2024-03-06T02:47:32;3.20;;;1.48;;
74935;SDS011;63501;55.570;37.488;2024-03-06T02:50:00;1.38;;;1.20;;
74935;SDS011;63501;55.570;37.488;2024-03-06T02:52:28;2.10;;;1.27;;
74935;SDS011;63501;55.570;37.488;2024-03-06T02:54:57;1.58;;;1.20;;
74935;SDS011;63501;55.570;37.488;2024-03-06T02:57:23;1.35;;;1.05;;
74935;SDS011;63501;55.570;37.488;2024-03-06T02:59:53;3.65;;;1.33;;
74935;SDS011;63501;55.570;37.488;2024-03-06T03:02:21;6.18;;;1.20;;
74935;SDS011;63501;55.570;37.488;2024-03-06T03:04:49;2.67;;;1.20;;
74935;SDS011;63501;55.570;37.488;2024-03-06T03:07:17;1.58;;;1.20;;
74935;SDS011;63501;55.570;37.488;2024-03-06T03:09:44;1.58;;;1.25;;
74935;SDS011;63501;55.570;37.488;2024-03-06T03:12:13;3.78;;;1.40;;
74935;SDS011;63501;55.570;37.488;2024-03-06T03:14:41;1.30;;;1.20;;
74935;SDS011;63501;55.570;37.488;2024-03-06T03:17:08;1.30;;;1.17;;
74935;SDS011;63501;55.570;37.488;2024-03-06T03:19:35;1.58;;;1.38;;
74935;SDS011;63501;55.570;37.488;2024-03-06T03:22:05;1.40;;;1.13;;
74935;SDS011;63501;55.570;37.488;2024-03-06T03:24:34;1.50;;;1.38;;
74935;SDS011;63501;55.570;37.488;2024-03-06T03:27:02;1.88;;;1.65;;
74935;SDS011;63501;55.570;37.488;2024-03-06T03:29:31;4.47;;;1.20;;
74935;SDS011;63501;55.570;37.488;2024-03-06T03:31:58;1.80;;;1.25;;
74935;SDS011;63501;55.570;37.488;2024-03-06T03:34:25;2.65;;;1.40;;
74935;SDS011;63501;55.570;37.488;2024-03-06T03:36:52;2.15;;;1.60;;
74935;SDS011;63501;55.570;37.488;2024-03-06T03:39:20;1.88;;;1.50;;
74935;SDS011;63501;55.570;37.488;2024-03-06T03:41:50;3.38;;;1.55;;
74935;SDS011;63501;55.570;37.488;2024-03-06T03:46:46;2.67;;;1.52;;
74935;SDS011;63501;55.570;37.488;2024-03-06T03:49:13;5.13;;;1.40;;
74935;SDS011;63501;55.570;37.488;2024-03-06T03:51:41;2.90;;;1.50;;
74935;SDS011;63501;55.570;37.488;2024-03-06T03:54:08;2.22;;;1.40;;
74935;SDS011;63501;55.570;37.488;2024-03-06T03:56:36;3.80;;;1.48;;
74935;SDS011;63501;55.570;37.488;2024-03-06T03:59:04;3.55;;;1.33;;
74935;SDS011;63501;55.570;37.488;2024-03-06T04:01:31;2.00;;;1.50;;
74935;SDS011;63501;55.570;37.488;2024-03-06T04:04:00;4.28;;;1.75;;
74935;SDS011;63501;55.570;37.488;2024-03-06T04:06:27;1.48;;;1.08;;
74935;SDS011;63501;55.570;37.488;2024-03-06T04:08:54;2.22;;;1.50;;
74935;SDS011;63501;55.570;37.488;2024-03-06T04:11:21;2.63;;;1.27;;
74935;SDS011;63501;55.570;37.488;2024-03-06T04:13:48;1.95;;;1.38;;
74935;SDS011;63501;55.570;37.488;2024-03-06T04:16:16;1.75;;;1.13;;
74935;SDS011;63501;55.570;37.488;2024-03-06T04:18:44;2.35;;;1.40;;
74935;SDS011;63501;55.570;37.488;2024-03-06T04:21:13;3.03;;;1.50;;
74935;SDS011;63501;55.570;37.488;2024-03-06T04:23:41;2.70;;;1.38;;
74935;SDS011;63501;55.570;37.488;2024-03-06T04:26:08;1.73;;;1.35;;
74935;SDS011;63501;55.570;37.488;2024-03-06T04:31:02;2.88;;;1.30;;
74935;SDS011;63501;55.570;37.488;2024-03-06T04:33:31;3.47;;;1.35;;
74935;SDS011;63501;55.570;37.488;2024-03-06T04:35:58;2.13;;;1.23;;
74935;SDS011;63501;55.570;37.488;2024-03-06T04:38:29;2.33;;;1.38;;
74935;SDS011;63501;55.570;37.488;2024-03-06T04:40:56;2.40;;;1.50;;
74935;SDS011;63501;55.570;37.488;2024-03-06T04:45:50;4.65;;;1.67;;
74935;SDS011;63501;55.570;37.488;2024-03-06T04:48:18;4.07;;;1.58;;
74935;SDS011;63501;55.570;37.488;2024-03-06T04:50:45;2.75;;;1.33;;
74935;SDS011;63501;55.570;37.488;2024-03-06T04:53:12;3.83;;;1.27;;
74935;SDS011;63501;55.570;37.488;2024-03-06T04:55:41;3.30;;;1.35;;
74935;SDS011;63501;55.570;37.488;2024-03-06T04:58:08;3.25;;;1.50;;
74935;SDS011;63501;55.570;37.488;2024-03-06T05:00:35;2.50;;;1.50;;
74935;SDS011;63501;55.570;37.488;2024-03-06T05:03:03;2.08;;;1.30;;
74935;SDS011;63501;55.570;37.488;2024-03-06T05:05:30;2.90;;;1.33;;
74935;SDS011;63501;55.570;37.488;2024-03-06T05:10:24;7.63;;;2.03;;
74935;SDS011;63501;55.570;37.488;2024-03-06T05:12:54;4.50;;;1.33;;
74935;SDS011;63501;55.570;37.488;2024-03-06T05:15:21;3.58;;;1.60;;
74935;SDS011;63501;55.570;37.488;2024-03-06T05:23:01;4.32;;;1.80;;
74935;SDS011;63501;55.570;37.488;2024-03-06T05:25:29;4.03;;;1.40;;
74935;SDS011;63501;55.570;37.488;2024-03-06T05:27:57;4.60;;;1.85;;
74935;SDS011;63501;55.570;37.488;2024-03-06T05:30:25;3.38;;;1.77;;
74935;SDS011;63501;55.570;37.488;2024-03-06T05:35:19;6.13;;;1.65;;
74935;SDS011;63501;55.570;37.488;2024-03-06T05:37:46;5.75;;;2.03;;
74935;SDS011;63501;55.570;37.488;2024-03-06T05:40:13;4.43;;;1.60;;
74935;SDS011;63501;55.570;37.488;2024-03-06T05:42:40;3.75;;;1.30;;
74935;SDS011;63501;55.570;37.488;2024-03-06T05:45:10;2.85;;;1.90;;
74935;SDS011;63501;55.570;37.488;2024-03-06T05:47:37;2.17;;;1.63;;
74935;SDS011;63501;55.570;37.488;2024-03-06T05:50:05;3.80;;;1.60;;
74935;SDS011;63501;55.570;37.488;2024-03-06T05:52:32;2.83;;;1.75;;
74935;SDS011;63501;55.570;37.488;2024-03-06T05:55:00;3.10;;;1.90;;
74935;SDS011;63501;55.570;37.488;2024-03-06T05:57:29;5.25;;;1.80;;
74935;SDS011;63501;55.570;37.488;2024-03-06T05:59:56;3.42;;;1.60;;
74935;SDS011;63501;55.570;37.488;2024-03-06T06:02:25;2.45;;;1.67;;
74935;SDS011;63501;55.570;37.488;2024-03-06T06:04:52;3.65;;;2.15;;
74935;SDS011;63501;55.570;37.488;2024-03-06T06:07:20;2.50;;;1.73;;
74935;SDS011;63501;55.570;37.488;2024-03-06T06:09:48;7.75;;;1.92;;
74935;SDS011;63501;55.570;37.488;2024-03-06T06:12:15;4.57;;;2.00;;
74935;SDS011;63501;55.570;37.488;2024-03-06T06:14:42;4.40;;;1.92;;
74935;SDS011;63501;55.570;37.488;2024-03-06T06:17:09;5.07;;;2.22;;
74935;SDS011;63501;55.570;37.488;2024-03-06T06:19:39;4.90;;;2.63;;
74935;SDS011;63501;55.570;37.488;2024-03-06T06:22:26;5.50;;;2.72;;
74935;SDS011;63501;55.570;37.488;2024-03-06T06:24:54;6.18;;;2.50;;
74935;SDS011;63501;55.570;37.488;2024-03-06T06:27:22;5.88;;;2.55;;
74935;SDS011;63501;55.570;37.488;2024-03-06T06:29:50;5.43;;;2.55;;
74935;SDS011;63501;55.570;37.488;2024-03-06T06:32:20;4.43;;;2.47;;
74935;SDS011;63501;55.570;37.488;2024-03-06T06:37:17;6.25;;;2.47;;
74935;SDS011;63501;55.570;37.488;2024-03-06T06:39:44;3.75;;;2.38;;
74935;SDS011;63501;55.570;37.488;2024-03-06T06:42:12;4.97;;;2.35;;
74935;SDS011;63501;55.570;37.488;2024-03-06T06:44:39;3.92;;;2.53;;
74935;SDS011;63501;55.570;37.488;2024-03-06T06:47:07;4.22;;;2.30;;
74935;SDS011;63501;55.570;37.488;2024-03-06T06:49:34;5.43;;;2.75;;
74935;SDS011;63501;55.570;37.488;2024-03-06T06:52:03;5.38;;;2.65;;
74935;SDS011;63501;55.570;37.488;2024-03-06T06:54:30;3.88;;;2.60;;
74935;SDS011;63501;55.570;37.488;2024-03-06T06:56:57;5.15;;;2.30;;
74935;SDS011;63501;55.570;37.488;2024-03-06T07:01:52;3.28;;;2.10;;
74935;SDS011;63501;55.570;37.488;2024-03-06T07:04:19;4.07;;;2.35;;
74935;SDS011;63501;55.570;37.488;2024-03-06T07:06:47;4.10;;;2.00;;
74935;SDS011;63501;55.570;37.488;2024-03-06T07:11:43;5.05;;;1.95;;
74935;SDS011;63501;55.570;37.488;2024-03-06T07:16:41;4.55;;;2.45;;
74935;SDS011;63501;55.570;37.488;2024-03-06T07:19:09;2.70;;;1.60;;
74935;SDS011;63501;55.570;37.488;2024-03-06T07:24:03;3.38;;;2.10;;
74935;SDS011;63501;55.570;37.488;2024-03-06T07:26:33;3.83;;;2.08;;
74935;SDS011;63501;55.570;37.488;2024-03-06T07:29:00;3.25;;;1.85;;
74935;SDS011;63501;55.570;37.488;2024-03-06T07:31:28;3.83;;;1.80;;
74935;SDS011;63501;55.570;37.488;2024-03-06T07:33:58;3.80;;;1.83;;
74935;SDS011;63501;55.570;37.488;2024-03-06T07:36:26;2.97;;;1.70;;
74935;SDS011;63501;55.570;37.488;2024-03-06T07:38:53;3.35;;;1.73;;
74935;SDS011;63501;55.570;37.488;2024-03-06T07:41:20;1.95;;;1.60;;
74935;SDS011;63501;55.570;37.488;2024-03-06T07:43:49;3.45;;;1.70;;
74935;SDS011;63501;55.570;37.488;2024-03-06T07:46:16;4.15;;;1.85;;
74935;SDS011;63501;55.570;37.488;2024-03-06T07:48:43;5.70;;;2.10;;
74935;SDS011;63501;55.570;37.488;2024-03-06T07:51:10;3.30;;;1.70;;
74935;SDS011;63501;55.570;37.488;2024-03-06T07:56:05;2.53;;;1.55;;
74935;SDS011;63501;55.570;37.488;2024-03-06T07:58:32;5.43;;;2.03;;
74935;SDS011;63501;55.570;37.488;2024-03-06T08:03:28;2.78;;;1.50;;
74935;SDS011;63501;55.570;37.488;2024-03-06T08:08:22;4.05;;;1.85;;
74935;SDS011;63501;55.570;37.488;2024-03-06T08:10:49;3.00;;;1.92;;
74935;SDS011;63501;55.570;37.488;2024-03-06T08:13:16;2.97;;;1.73;;
74935;SDS011;63501;55.570;37.488;2024-03-06T08:15:44;2.80;;;1.70;;
74935;SDS011;63501;55.570;37.488;2024-03-06T08:20:43;2.00;;;1.40;;
74935;SDS011;63501;55.570;37.488;2024-03-06T08:23:10;3.22;;;1.67;;
74935;SDS011;63501;55.570;37.488;2024-03-06T08:25:38;3.17;;;1.80;;
74935;SDS011;63501;55.570;37.488;2024-03-06T08:28:05;2.38;;;1.80;;
74935;SDS011;63501;55.570;37.488;2024-03-06T08:30:33;5.57;;;1.92;;
74935;SDS011;63501;55.570;37.488;2024-03-06T08:33:00;3.28;;;1.58;;
74935;SDS011;63501;55.570;37.488;2024-03-06T08:35:30;3.63;;;1.75;;
74935;SDS011;63501;55.570;37.488;2024-03-06T08:37:58;4.25;;;2.00;;
74935;SDS011;63501;55.570;37.488;2024-03-06T08:40:25;4.40;;;1.80;;
74935;SDS011;63501;55.570;37.488;2024-03-06T08:42:53;7.30;;;1.75;;
74935;SDS011;63501;55.570;37.488;2024-03-06T08:45:21;6.15;;;1.83;;
74935;SDS011;63501;55.570;37.488;2024-03-06T08:48:07;2.38;;;1.60;;
74935;SDS011;63501;55.570;37.488;2024-03-06T08:50:36;3.08;;;1.50;;
74935;SDS011;63501;55.570;37.488;2024-03-06T08:53:03;3.42;;;1.70;;
74935;SDS011;63501;55.570;37.488;2024-03-06T08:55:31;2.72;;;1.75;;
74935;SDS011;63501;55.570;37.488;2024-03-06T09:00:26;5.78;;;2.03;;
74935;SDS011;63501;55.570;37.488;2024-03-06T09:05:20;6.80;;;1.85;;
74935;SDS011;63501;55.570;37.488;2024-03-06T09:07:49;3.08;;;1.80;;
74935;SDS011;63501;55.570;37.488;2024-03-06T09:10:17;4.57;;;1.80;;
74935;SDS011;63501;55.570;37.488;2024-03-06T09:12:44;7.95;;;1.80;;
74935;SDS011;63501;55.570;37.488;2024-03-06T09:15:12;5.45;;;1.52;;
74935;SDS011;63501;55.570;37.488;2024-03-06T09:17:41;5.13;;;1.60;;
74935;SDS011;63501;55.570;37.488;2024-03-06T09:20:10;3.67;;;1.33;;
74935;SDS011;63501;55.570;37.488;2024-03-06T09:22:37;2.80;;;1.75;;
74935;SDS011;63501;55.570;37.488;2024-03-06T09:27:33;4.38;;;1.88;;
74935;SDS011;63501;55.570;37.488;2024-03-06T09:30:01;3.00;;;1.60;;
74935;SDS011;63501;55.570;37.488;2024-03-06T09:32:30;3.70;;;1.63;;
74935;SDS011;63501;55.570;37.488;2024-03-06T09:37:25;3.58;;;1.50;;
74935;SDS011;63501;55.570;37.488;2024-03-06T09:39:53;5.15;;;1.80;;
74935;SDS011;63501;55.570;37.488;2024-03-06T09:42:23;3.47;;;1.80;;
74935;SDS011;63501;55.570;37.488;2024-03-06T09:44:50;3.63;;;1.50;;
74935;SDS011;63501;55.570;37.488;2024-03-06T09:49:48;3.55;;;1.38;;
74935;SDS011;63501;55.570;37.488;2024-03-06T09:52:17;2.30;;;1.33;;
74935;SDS011;63501;55.570;37.488;2024-03-06T09:57:11;2.88;;;1.42;;
74935;SDS011;63501;55.570;37.488;2024-03-06T09:59:42;3.10;;;1.60;;
74935;SDS011;63501;55.570;37.488;2024-03-06T10:02:18;3.17;;;1.55;;
74935;SDS011;63501;55.570;37.488;2024-03-06T10:04:57;2.95;;;1.60;;
74935;SDS011;63501;55.570;37.488;2024-03-06T10:07:26;4.32;;;1.50;;
74935;SDS011;63501;55.570;37.488;2024-03-06T10:09:53;2.70;;;1.50;;
74935;SDS011;63501;55.570;37.488;2024-03-06T10:12:22;2.28;;;1.60;;
74935;SDS011;63501;55.570;37.488;2024-03-06T10:14:52;7.85;;;1.60;;
74935;SDS011;63501;55.570;37.488;2024-03-06T10:17:19;2.83;;;1.42;;
74935;SDS011;63501;55.570;37.488;2024-03-06T10:19:52;3.38;;;1.50;;
74935;SDS011;63501;55.570;37.488;2024-03-06T10:22:19;3.33;;;1.52;;
74935;SDS011;63501;55.570;37.488;2024-03-06T10:24:54;2.35;;;1.50;;
74935;SDS011;63501;55.570;37.488;2024-03-06T10:27:22;4.47;;;1.70;;
74935;SDS011;63501;55.570;37.488;2024-03-06T10:30:01;3.83;;;1.77;;
74935;SDS011;63501;55.570;37.488;2024-03-06T10:32:36;2.33;;;1.60;;
74935;SDS011;63501;55.570;37.488;2024-03-06T10:35:04;4.10;;;1.48;;
74935;SDS011;63501;55.570;37.488;2024-03-06T10:37:34;2.60;;;1.35;;
74935;SDS011;63501;55.570;37.488;2024-03-06T10:40:03;2.78;;;1.50;;
74935;SDS011;63501;55.570;37.488;2024-03-06T10:42:31;4.78;;;1.88;;
74935;SDS011;63501;55.570;37.488;2024-03-06T10:45:03;2.05;;;1.35;;
74935;SDS011;63501;55.570;37.488;2024-03-06T10:47:32;2.50;;;1.30;;
74935;SDS011;63501;55.570;37.488;2024-03-06T10:50:00;3.38;;;1.50;;
74935;SDS011;63501;55.570;37.488;2024-03-06T10:52:30;2.35;;;1.50;;
74935;SDS011;63501;55.570;37.488;2024-03-06T10:55:00;2.58;;;1.30;;
74935;SDS011;63501;55.570;37.488;2024-03-06T10:57:29;3.95;;;1.50;;
74935;SDS011;63501;55.570;37.488;2024-03-06T11:02:26;3.63;;;1.45;;
74935;SDS011;63501;55.570;37.488;2024-03-06T11:04:55;3.88;;;1.65;;
74935;SDS011;63501;55.570;37.488;2024-03-06T11:07:22;3.25;;;1.65;;
74935;SDS011;63501;55.570;37.488;2024-03-06T11:09:49;3.30;;;1.45;;
74935;SDS011;63501;55.570;37.488;2024-03-06T11:12:32;4.00;;;1.38;;
74935;SDS011;63501;55.570;37.488;2024-03-06T11:15:00;5.93;;;1.73;;
74935;SDS011;63501;55.570;37.488;2024-03-06T11:17:30;2.00;;;1.60;;
74935;SDS011;63501;55.570;37.488;2024-03-06T11:20:17;4.13;;;1.73;;
74935;SDS011;63501;55.570;37.488;2024-03-06T11:23:04;2.70;;;1.77;;
74935;SDS011;63501;55.570;37.488;2024-03-06T11:28:28;3.20;;;1.70;;
74935;SDS011;63501;55.570;37.488;2024-03-06T11:30:57;3.95;;;2.15;;
74935;SDS011;63501;55.570;37.488;2024-03-06T11:33:36;4.18;;;1.80;;
74935;SDS011;63501;55.570;37.488;2024-03-06T11:36:19;5.10;;;2.00;;
74935;SDS011;63501;55.570;37.488;2024-03-06T11:38:51;3.05;;;1.60;;
74935;SDS011;63501;55.570;37.488;2024-03-06T11:41:22;2.13;;;1.60;;
74935;SDS011;63501;55.570;37.488;2024-03-06T11:43:51;2.72;;;1.70;;
74935;SDS011;63501;55.570;37.488;2024-03-06T11:46:21;4.75;;;1.70;;
74935;SDS011;63501;55.570;37.488;2024-03-06T11:48:53;6.13;;;1.90;;
74935;SDS011;63501;55.570;37.488;2024-03-06T11:51:21;3.47;;;1.60;;
74935;SDS011;63501;55.570;37.488;2024-03-06T11:53:50;3.10;;;1.90;;
74935;SDS011;63501;55.570;37.488;2024-03-06T11:56:20;3.03;;;1.52;;
74935;SDS011;63501;55.570;37.488;2024-03-06T11:58:47;2.90;;;1.60;;
74935;SDS011;63501;55.570;37.488;2024-03-06T12:03:42;4.45;;;2.63;;
74935;SDS011;63501;55.570;37.488;2024-03-06T12:06:12;2.58;;;1.50;;
74935;SDS011;63501;55.570;37.488;2024-03-06T12:08:40;4.18;;;1.58;;
74935;SDS011;63501;55.570;37.488;2024-03-06T12:11:07;2.47;;;1.80;;
74935;SDS011;63501;55.570;37.488;2024-03-06T12:13:35;2.53;;;1.65;;
74935;SDS011;63501;55.570;37.488;2024-03-06T12:16:07;5.07;;;1.92;;
74935;SDS011;63501;55.570;37.488;2024-03-06T12:18:35;2.10;;;1.70;;
74935;SDS011;63501;55.570;37.488;2024-03-06T12:21:02;3.33;;;1.83;;
74935;SDS011;63501;55.570;37.488;2024-03-06T12:23:32;5.55;;;1.88;;
74935;SDS011;63501;55.570;37.488;2024-03-06T12:26:05;3.00;;;1.70;;
74935;SDS011;63501;55.570;37.488;2024-03-06T12:28:35;3.70;;;1.65;;
74935;SDS011;63501;55.570;37.488;2024-03-06T12:31:03;2.60;;;1.50;;
74935;SDS011;63501;55.570;37.488;2024-03-06T12:33:33;5.82;;;1.80;;
74935;SDS011;63501;55.570;37.488;2024-03-06T12:36:02;3.55;;;1.77;;
74935;SDS011;63501;55.570;37.488;2024-03-06T12:38:33;5.53;;;2.22;;
74935;SDS011;63501;55.570;37.488;2024-03-06T12:41:00;5.95;;;2.03;;
74935;SDS011;63501;55.570;37.488;2024-03-06T12:43:28;7.15;;;2.30;;
74935;SDS011;63501;55.570;37.488;2024-03-06T12:45:56;4.35;;;2.03;;
74935;SDS011;63501;55.570;37.488;2024-03-06T12:48:23;3.33;;;1.90;;
74935;SDS011;63501;55.570;37.488;2024-03-06T12:50:55;10.02;;;2.20;;
74935;SDS011;63501;55.570;37.488;2024-03-06T12:53:30;2.53;;;1.75;;
74935;SDS011;63501;55.570;37.488;2024-03-06T12:55:59;6.57;;;2.45;;
74935;SDS011;63501;55.570;37.488;2024-03-06T12:58:28;2.72;;;1.90;;
74935;SDS011;63501;55.570;37.488;2024-03-06T13:00:56;3.13;;;1.88;;
74935;SDS011;63501;55.570;37.488;2024-03-06T13:03:24;4.28;;;2.25;;
74935;SDS011;63501;55.570;37.488;2024-03-06T13:05:51;4.78;;;2.40;;
74935;SDS011;63501;55.570;37.488;2024-03-06T13:08:19;2.30;;;1.88;;
74935;SDS011;63501;55.570;37.488;2024-03-06T13:10:46;3.90;;;2.20;;
74935;SDS011;63501;55.570;37.488;2024-03-06T13:15:44;5.60;;;2.40;;
74935;SDS011;63501;55.570;37.488;2024-03-06T13:18:13;3.80;;;1.77;;
74935;SDS011;63501;55.570;37.488;2024-03-06T13:20:44;3.85;;;2.65;;
74935;SDS011;63501;55.570;37.488;2024-03-06T13:23:11;5.10;;;2.20;;
74935;SDS011;63501;55.570;37.488;2024-03-06T13:25:39;3.78;;;1.90;;
74935;SDS011;63501;55.570;37.488;2024-03-06T13:28:06;5.25;;;2.08;;
74935;SDS011;63501;55.570;37.488;2024-03-06T13:30:36;8.32;;;2.20;;
74935;SDS011;63501;55.570;37.488;2024-03-06T13:33:04;4.55;;;2.10;;
74935;SDS011;63501;55.570;37.488;2024-03-06T13:35:35;3.28;;;1.90;;
74935;SDS011;63501;55.570;37.488;2024-03-06T13:38:05;4.35;;;2.10;;
74935;SDS011;63501;55.570;37.488;2024-03-06T13:40:33;3.42;;;1.83;;
74935;SDS011;63501;55.570;37.488;2024-03-06T13:43:00;3.55;;;2.03;;
74935;SDS011;63501;55.570;37.488;2024-03-06T13:45:28;3.65;;;1.85;;
74935;SDS011;63501;55.570;37.488;2024-03-06T13:47:56;2.30;;;1.70;;
74935;SDS011;63501;55.570;37.488;2024-03-06T13:50:24;5.50;;;1.92;;
74935;SDS011;63501;55.570;37.488;2024-03-06T13:52:53;4.97;;;1.98;;
74935;SDS011;63501;55.570;37.488;2024-03-06T13:55:20;10.45;;;2.05;;
74935;SDS011;63501;55.570;37.488;2024-03-06T13:57:48;3.03;;;1.70;;
74935;SDS011;63501;55.570;37.488;2024-03-06T14:03:02;4.60;;;1.98;;
74935;SDS011;63501;55.570;37.488;2024-03-06T14:05:31;6.13;;;2.13;;
74935;SDS011;63501;55.570;37.488;2024-03-06T14:07:59;3.75;;;2.03;;
74935;SDS011;63501;55.570;37.488;2024-03-06T14:12:56;4.18;;;2.05;;
74935;SDS011;63501;55.570;37.488;2024-03-06T14:15:23;4.38;;;2.67;;
74935;SDS011;63501;55.570;37.488;2024-03-06T14:18:09;2.60;;;1.92;;
74935;SDS011;63501;55.570;37.488;2024-03-06T14:20:37;3.92;;;1.88;;
74935;SDS011;63501;55.570;37.488;2024-03-06T14:23:04;5.07;;;2.08;;
74935;SDS011;63501;55.570;37.488;2024-03-06T14:25:33;3.10;;;2.00;;
74935;SDS011;63501;55.570;37.488;2024-03-06T14:28:03;4.78;;;2.00;;
74935;SDS011;63501;55.570;37.488;2024-03-06T14:30:30;2.97;;;1.95;;
74935;SDS011;63501;55.570;37.488;2024-03-06T14:32:57;2.63;;;1.88;;
74935;SDS011;63501;55.570;37.488;2024-03-06T14:35:26;4.10;;;1.92;;
74935;SDS011;63501;55.570;37.488;2024-03-06T14:37:53;3.70;;;1.92;;
74935;SDS011;63501;55.570;37.488;2024-03-06T14:42:47;4.55;;;1.80;;
74935;SDS011;63501;55.570;37.488;2024-03-06T14:47:42;6.18;;;2.00;;
74935;SDS011;63501;55.570;37.488;2024-03-06T14:50:09;4.22;;;1.80;;
74935;SDS011;63501;55.570;37.488;2024-03-06T14:52:38;4.30;;;2.00;;
74935;SDS011;63501;55.570;37.488;2024-03-06T14:55:06;3.67;;;2.00;;
74935;SDS011;63501;55.570;37.488;2024-03-06T14:57:34;2.95;;;1.50;;
74935;SDS011;63501;55.570;37.488;2024-03-06T15:02:31;4.30;;;1.80;;
74935;SDS011;63501;55.570;37.488;2024-03-06T15:07:26;4.63;;;1.88;;
74935;SDS011;63501;55.570;37.488;2024-03-06T15:12:23;5.85;;;1.90;;
74935;SDS011;63501;55.570;37.488;2024-03-06T15:17:19;3.88;;;2.03;;
74935;SDS011;63501;55.570;37.488;2024-03-06T15:19:46;3.20;;;1.45;;
74935;SDS011;63501;55.570;37.488;2024-03-06T15:24:41;3.42;;;2.03;;
74935;SDS011;63501;55.570;37.488;2024-03-06T15:27:11;2.70;;;1.77;;
74935;SDS011;63501;55.570;37.488;2024-03-06T15:29:40;3.67;;;1.70;;
74935;SDS011;63501;55.570;37.488;2024-03-06T15:32:08;2.70;;;1.63;;
74935;SDS011;63501;55.570;37.488;2024-03-06T15:34:36;3.85;;;1.80;;
74935;SDS011;63501;55.570;37.488;2024-03-06T15:37:04;5.13;;;2.72;;
74935;SDS011;63501;55.570;37.488;2024-03-06T15:39:31;4.47;;;2.65;;
74935;SDS011;63501;55.570;37.488;2024-03-06T15:41:58;6.00;;;2.13;;
74935;SDS011;63501;55.570;37.488;2024-03-06T15:44:27;4.80;;;2.00;;
74935;SDS011;63501;55.570;37.488;2024-03-06T15:46:55;3.30;;;2.00;;
74935;SDS011;63501;55.570;37.488;2024-03-06T15:51:50;5.88;;;2.33;;
74935;SDS011;63501;55.570;37.488;2024-03-06T15:56:45;8.43;;;2.88;;
74935;SDS011;63501;55.570;37.488;2024-03-06T15:59:12;6.03;;;2.70;;
74935;SDS011;63501;55.570;37.488;2024-03-06T16:01:41;9.30;;;2.90;;
74935;SDS011;63501;55.570;37.488;2024-03-06T16:04:10;5.18;;;2.53;;
74935;SDS011;63501;55.570;37.488;2024-03-06T16:06:38;5.32;;;2.20;;
74935;SDS011;63501;55.570;37.488;2024-03-06T16:09:06;5.55;;;2.63;;
74935;SDS011;63501;55.570;37.488;2024-03-06T16:11:38;5.20;;;2.40;;
74935;SDS011;63501;55.570;37.488;2024-03-06T16:14:06;3.47;;;2.20;;
74935;SDS011;63501;55.570;37.488;2024-03-06T16:16:33;7.45;;;2.10;;
74935;SDS011;63501;55.570;37.488;2024-03-06T16:19:02;8.55;;;1.85;;
74935;SDS011;63501;55.570;37.488;2024-03-06T16:21:29;4.25;;;2.00;;
74935;SDS011;63501;55.570;37.488;2024-03-06T16:23:56;9.77;;;2.33;;
74935;SDS011;63501;55.570;37.488;2024-03-06T16:26:27;3.53;;;2.03;;